sensor_id;sensor_type;location;lat;lon;timestamp;pressure;altitude;pressure_sealevel;temperature;humidity
76201;BME280;64981;52.930;9.266;2023-10-13T00:00:30;100867.13;;;13.98;87.39
76201;BME280;64981;52.930;9.266;2023-10-13T00:02:58;100870.09;;;14.03;87.42
76201;BME280;64981;52.930;9.266;2023-10-13T00:05:28;100868.78;;;13.99;87.79
76201;BME280;64981;52.930;9.266;2023-10-13T00:07:57;100875.94;;;13.99;88.37
76201;BME280;64981;52.930;9.266;2023-10-13T00:10:28;100869.16;;;14.11;87.70
76201;BME280;64981;52.930;9.266;2023-10-13T00:12:55;100865.69;;;14.11;87.60
76201;BME280;64981;52.930;9.266;2023-10-13T00:15:32;100862.84;;;14.12;87.80
76201;BME280;64981;52.930;9.266;2023-10-13T00:18:05;100870.53;;;14.07;88.88
76201;BME280;64981;52.930;9.266;2023-10-13T00:20:40;100857.53;;;14.12;88.42
76201;BME280;64981;52.930;9.266;2023-10-13T00:23:06;100862.19;;;14.10;89.14
76201;BME280;64981;52.930;9.266;2023-10-13T00:25:31;100852.41;;;14.11;88.89
76201;BME280;64981;52.930;9.266;2023-10-13T00:28:05;100849.28;;;14.07;89.22
76201;BME280;64981;52.930;9.266;2023-10-13T00:30:34;100852.88;;;14.14;88.71
76201;BME280;64981;52.930;9.266;2023-10-13T00:32:59;100856.19;;;14.16;89.30
76201;BME280;64981;52.930;9.266;2023-10-13T00:35:26;100847.66;;;14.21;88.96
76201;BME280;64981;52.930;9.266;2023-10-13T00:37:56;100840.78;;;14.26;88.51
76201;BME280;64981;52.930;9.266;2023-10-13T00:40:25;100840.97;;;14.25;88.62
76201;BME280;64981;52.930;9.266;2023-10-13T00:43:07;100831.53;;;14.22;89.10
76201;BME280;64981;52.930;9.266;2023-10-13T00:45:44;100822.97;;;14.41;88.07
76201;BME280;64981;52.930;9.266;2023-10-13T00:48:11;100827.94;;;14.30;88.74
76201;BME280;64981;52.930;9.266;2023-10-13T00:50:38;100830.34;;;14.25;89.21
76201;BME280;64981;52.930;9.266;2023-10-13T00:53:04;100820.28;;;14.35;88.90
76201;BME280;64981;52.930;9.266;2023-10-13T00:55:30;100826.56;;;14.48;88.31
76201;BME280;64981;52.930;9.266;2023-10-13T00:58:00;100823.44;;;14.45;88.70
76201;BME280;64981;52.930;9.266;2023-10-13T01:00:29;100816.78;;;14.34;89.39
76201;BME280;64981;52.930;9.266;2023-10-13T01:02:56;100822.34;;;14.39;89.82
76201;BME280;64981;52.930;9.266;2023-10-13T01:05:22;100812.28;;;14.35;89.81
76201;BME280;64981;52.930;9.266;2023-10-13T01:07:49;100807.88;;;14.42;89.59
76201;BME280;64981;52.930;9.266;2023-10-13T01:10:19;100808.97;;;14.47;89.54
76201;BME280;64981;52.930;9.266;2023-10-13T01:12:46;100804.25;;;14.64;88.25
76201;BME280;64981;52.930;9.266;2023-10-13T01:15:13;100798.03;;;14.57;88.99
76201;BME280;64981;52.930;9.266;2023-10-13T01:17:43;100793.53;;;14.57;89.15
76201;BME280;64981;52.930;9.266;2023-10-13T01:20:10;100799.53;;;14.60;89.22
76201;BME280;64981;52.930;9.266;2023-10-13T01:22:38;100792.34;;;14.60;89.31
76201;BME280;64981;52.930;9.266;2023-10-13T01:25:04;100799.97;;;14.63;89.40
76201;BME280;64981;52.930;9.266;2023-10-13T01:27:39;100792.34;;;14.60;89.53
76201;BME280;64981;52.930;9.266;2023-10-13T01:30:06;100800.22;;;14.68;89.71
76201;BME280;64981;52.930;9.266;2023-10-13T01:32:36;100786.09;;;14.68;89.77
76201;BME280;64981;52.930;9.266;2023-10-13T01:35:10;100793.91;;;14.69;89.85
76201;BME280;64981;52.930;9.266;2023-10-13T01:37:36;100783.97;;;14.78;89.38
76201;BME280;64981;52.930;9.266;2023-10-13T01:40:01;100784.81;;;14.78;89.61
76201;BME280;64981;52.930;9.266;2023-10-13T01:42:27;100780.66;;;14.76;89.95
76201;BME280;64981;52.930;9.266;2023-10-13T01:44:56;100777.66;;;14.79;90.23
76201;BME280;64981;52.930;9.266;2023-10-13T01:47:31;100768.63;;;14.80;90.36
76201;BME280;64981;52.930;9.266;2023-10-13T01:49:58;100769.03;;;14.77;90.71
76201;BME280;64981;52.930;9.266;2023-10-13T01:52:32;100760.28;;;14.83;90.61
76201;BME280;64981;52.930;9.266;2023-10-13T01:54:58;100763.00;;;14.89;90.52
76201;BME280;64981;52.930;9.266;2023-10-13T01:57:27;100760.28;;;15.04;89.56
76201;BME280;64981;52.930;9.266;2023-10-13T01:59:53;100756.31;;;14.93;90.14
76201;BME280;64981;52.930;9.266;2023-10-13T02:02:20;100754.09;;;14.97;90.40
76201;BME280;64981;52.930;9.266;2023-10-13T02:04:56;100759.00;;;15.15;89.66
76201;BME280;64981;52.930;9.266;2023-10-13T02:07:23;100758.38;;;15.13;89.90
76201;BME280;64981;52.930;9.266;2023-10-13T02:09:56;100736.69;;;15.16;90.05
76201;BME280;64981;52.930;9.266;2023-10-13T02:12:22;100750.06;;;15.22;89.59
76201;BME280;64981;52.930;9.266;2023-10-13T02:15:03;100757.28;;;15.28;89.82
76201;BME280;64981;52.930;9.266;2023-10-13T02:17:30;100748.03;;;15.24;90.59
76201;BME280;64981;52.930;9.266;2023-10-13T02:20:06;100751.63;;;15.38;90.09
76201;BME280;64981;52.930;9.266;2023-10-13T02:22:40;100752.00;;;15.35;90.47
76201;BME280;64981;52.930;9.266;2023-10-13T02:25:16;100744.59;;;15.30;90.86
76201;BME280;64981;52.930;9.266;2023-10-13T02:28:01;100741.94;;;15.30;91.29
76201;BME280;64981;52.930;9.266;2023-10-13T02:30:27;100734.78;;;15.31;91.41
76201;BME280;64981;52.930;9.266;2023-10-13T02:32:53;100736.03;;;15.35;91.34
76201;BME280;64981;52.930;9.266;2023-10-13T02:35:21;100723.91;;;15.32;91.48
76201;BME280;64981;52.930;9.266;2023-10-13T02:37:55;100723.00;;;15.46;90.93
76201;BME280;64981;52.930;9.266;2023-10-13T02:40:24;100728.34;;;15.46;91.37
76201;BME280;64981;52.930;9.266;2023-10-13T02:42:50;100721.66;;;15.57;90.95
76201;BME280;64981;52.930;9.266;2023-10-13T02:45:15;100709.41;;;15.62;90.71
76201;BME280;64981;52.930;9.266;2023-10-13T02:47:43;100703.03;;;15.57;91.18
76201;BME280;64981;52.930;9.266;2023-10-13T02:50:09;100707.19;;;15.66;90.83
76201;BME280;64981;52.930;9.266;2023-10-13T02:52:38;100697.72;;;15.57;91.31
76201;BME280;64981;52.930;9.266;2023-10-13T02:55:07;100704.09;;;15.62;91.37
76201;BME280;64981;52.930;9.266;2023-10-13T02:57:39;100693.25;;;15.71;90.67
76201;BME280;64981;52.930;9.266;2023-10-13T03:00:06;100689.34;;;15.67;90.98
76201;BME280;64981;52.930;9.266;2023-10-13T03:02:41;100684.06;;;15.73;91.03
76201;BME280;64981;52.930;9.266;2023-10-13T03:05:12;100681.81;;;15.77;90.69
76201;BME280;64981;52.930;9.266;2023-10-13T03:07:39;100682.06;;;15.82;90.34
76201;BME280;64981;52.930;9.266;2023-10-13T03:10:09;100678.53;;;15.75;90.81
76201;BME280;64981;52.930;9.266;2023-10-13T03:12:38;100671.66;;;15.93;89.77
76201;BME280;64981;52.930;9.266;2023-10-13T03:15:06;100673.28;;;15.88;90.05
76201;BME280;64981;52.930;9.266;2023-10-13T03:17:42;100670.78;;;15.80;90.87
76201;BME280;64981;52.930;9.266;2023-10-13T03:20:12;100667.06;;;15.74;91.03
76201;BME280;64981;52.930;9.266;2023-10-13T03:22:40;100679.00;;;15.85;90.52
76201;BME280;64981;52.930;9.266;2023-10-13T03:25:06;100672.88;;;15.91;90.08
76201;BME280;64981;52.930;9.266;2023-10-13T03:27:34;100657.31;;;15.88;90.17
76201;BME280;64981;52.930;9.266;2023-10-13T03:30:10;100664.94;;;15.97;89.97
76201;BME280;64981;52.930;9.266;2023-10-13T03:32:41;100666.78;;;16.03;89.79
76201;BME280;64981;52.930;9.266;2023-10-13T03:35:11;100667.25;;;16.07;89.32
76201;BME280;64981;52.930;9.266;2023-10-13T03:37:39;100661.47;;;16.03;89.63
76201;BME280;64981;52.930;9.266;2023-10-13T03:40:09;100664.59;;;16.07;89.36
76201;BME280;64981;52.930;9.266;2023-10-13T03:42:48;100657.38;;;16.01;89.82
76201;BME280;64981;52.930;9.266;2023-10-13T03:45:26;100643.63;;;15.97;90.05
76201;BME280;64981;52.930;9.266;2023-10-13T03:47:52;100642.03;;;16.09;89.07
76201;BME280;64981;52.930;9.266;2023-10-13T03:50:20;100645.94;;;16.07;89.20
76201;BME280;64981;52.930;9.266;2023-10-13T03:52:56;100636.84;;;16.01;89.37
76201;BME280;64981;52.930;9.266;2023-10-13T03:55:24;100637.97;;;16.13;88.92
76201;BME280;64981;52.930;9.266;2023-10-13T03:57:53;100641.03;;;16.17;88.83
76201;BME280;64981;52.930;9.266;2023-10-13T04:00:22;100638.19;;;16.19;88.79
76201;BME280;64981;52.930;9.266;2023-10-13T04:02:51;100646.16;;;16.19;88.99
76201;BME280;64981;52.930;9.266;2023-10-13T04:05:33;100639.41;;;16.16;88.94
76201;BME280;64981;52.930;9.266;2023-10-13T04:08:11;100632.41;;;16.15;89.17
76201;BME280;64981;52.930;9.266;2023-10-13T04:10:47;100626.84;;;16.03;89.71
76201;BME280;64981;52.930;9.266;2023-10-13T04:13:32;100620.34;;;16.19;89.35
76201;BME280;64981;52.930;9.266;2023-10-13T04:16:08;100619.13;;;16.22;88.81
76201;BME280;64981;52.930;9.266;2023-10-13T04:18:44;100618.09;;;16.23;88.85
76201;BME280;64981;52.930;9.266;2023-10-13T04:21:21;100620.34;;;16.19;89.05
76201;BME280;64981;52.930;9.266;2023-10-13T04:23:57;100610.25;;;16.08;89.51
76201;BME280;64981;52.930;9.266;2023-10-13T04:26:32;100613.56;;;16.10;89.76
76201;BME280;64981;52.930;9.266;2023-10-13T04:29:07;100603.56;;;16.25;88.71
76201;BME280;64981;52.930;9.266;2023-10-13T04:31:56;100592.47;;;16.28;88.26
76201;BME280;64981;52.930;9.266;2023-10-13T04:34:25;100597.59;;;16.17;88.91
76201;BME280;64981;52.930;9.266;2023-10-13T04:36:59;100596.56;;;16.24;88.50
76201;BME280;64981;52.930;9.266;2023-10-13T04:39:44;100588.16;;;16.21;88.73
76201;BME280;64981;52.930;9.266;2023-10-13T04:42:10;100588.56;;;16.24;88.66
76201;BME280;64981;52.930;9.266;2023-10-13T04:44:39;100573.00;;;16.34;87.98
76201;BME280;64981;52.930;9.266;2023-10-13T04:47:14;100570.75;;;16.25;88.35
76201;BME280;64981;52.930;9.266;2023-10-13T04:49:44;100561.91;;;16.17;88.83
76201;BME280;64981;52.930;9.266;2023-10-13T04:52:19;100557.41;;;16.18;88.46
76201;BME280;64981;52.930;9.266;2023-10-13T04:55:04;100561.72;;;16.19;88.88
76201;BME280;64981;52.930;9.266;2023-10-13T04:57:40;100557.22;;;16.33;88.35
76201;BME280;64981;52.930;9.266;2023-10-13T05:00:15;100545.50;;;16.21;88.51
76201;BME280;64981;52.930;9.266;2023-10-13T05:02:54;100540.00;;;16.29;88.25
76201;BME280;64981;52.930;9.266;2023-10-13T05:05:29;100532.84;;;16.29;88.17
76201;BME280;64981;52.930;9.266;2023-10-13T05:08:05;100536.91;;;16.25;88.55
76201;BME280;64981;52.930;9.266;2023-10-13T05:10:40;100532.59;;;16.24;88.30
76201;BME280;64981;52.930;9.266;2023-10-13T05:13:16;100526.84;;;16.14;88.66
76201;BME280;64981;52.930;9.266;2023-10-13T05:15:53;100527.09;;;16.26;88.12
76201;BME280;64981;52.930;9.266;2023-10-13T05:18:28;100529.53;;;16.21;88.96
76201;BME280;64981;52.930;9.266;2023-10-13T05:21:04;100524.19;;;16.14;89.27
76201;BME280;64981;52.930;9.266;2023-10-13T05:23:39;100524.59;;;16.17;89.23
76201;BME280;64981;52.930;9.266;2023-10-13T05:26:15;100521.94;;;16.17;89.59
76201;BME280;64981;52.930;9.266;2023-10-13T05:28:50;100520.09;;;16.18;89.77
76201;BME280;64981;52.930;9.266;2023-10-13T05:31:26;100516.84;;;16.29;89.17
76201;BME280;64981;52.930;9.266;2023-10-13T05:34:01;100512.72;;;16.40;88.21
76201;BME280;64981;52.930;9.266;2023-10-13T05:36:37;100505.53;;;16.27;88.76
76201;BME280;64981;52.930;9.266;2023-10-13T05:39:13;100509.88;;;16.41;88.07
76201;BME280;64981;52.930;9.266;2023-10-13T05:41:48;100502.69;;;16.35;88.42
76201;BME280;64981;52.930;9.266;2023-10-13T05:44:24;100491.41;;;16.40;88.29
76201;BME280;64981;52.930;9.266;2023-10-13T05:46:59;100485.03;;;16.28;88.50
76201;BME280;64981;52.930;9.266;2023-10-13T05:49:38;100485.47;;;16.38;88.01
76201;BME280;64981;52.930;9.266;2023-10-13T05:52:15;100490.38;;;16.28;88.60
76201;BME280;64981;52.930;9.266;2023-10-13T05:54:46;100486.28;;;16.45;88.01
76201;BME280;64981;52.930;9.266;2023-10-13T05:57:22;100486.69;;;16.35;88.45
76201;BME280;64981;52.930;9.266;2023-10-13T05:59:57;100487.53;;;16.23;89.00
76201;BME280;64981;52.930;9.266;2023-10-13T06:02:33;100483.63;;;16.38;88.19
76201;BME280;64981;52.930;9.266;2023-10-13T06:05:10;100486.06;;;16.20;89.19
76201;BME280;64981;52.930;9.266;2023-10-13T06:07:46;100474.38;;;16.28;89.11
76201;BME280;64981;52.930;9.266;2023-10-13T06:10:22;100479.13;;;16.32;88.59
76201;BME280;64981;52.930;9.266;2023-10-13T06:12:57;100461.88;;;16.22;89.15
76201;BME280;64981;52.930;9.266;2023-10-13T06:15:36;100472.97;;;16.25;89.34
76201;BME280;64981;52.930;9.266;2023-10-13T06:18:11;100465.78;;;16.26;89.07
76201;BME280;64981;52.930;9.266;2023-10-13T06:20:47;100464.75;;;16.33;88.91
76201;BME280;64981;52.930;9.266;2023-10-13T06:23:22;100464.31;;;16.23;89.60
76201;BME280;64981;52.930;9.266;2023-10-13T06:25:58;100444.88;;;16.29;89.33
76201;BME280;64981;52.930;9.266;2023-10-13T06:28:33;100461.47;;;16.31;89.03
76201;BME280;64981;52.930;9.266;2023-10-13T06:31:08;100450.41;;;16.14;89.92
76201;BME280;64981;52.930;9.266;2023-10-13T06:33:37;100454.72;;;16.29;89.72
76201;BME280;64981;52.930;9.266;2023-10-13T06:36:10;100451.41;;;16.27;90.23
76201;BME280;64981;52.930;9.266;2023-10-13T06:38:37;100437.91;;;16.28;89.86
76201;BME280;64981;52.930;9.266;2023-10-13T06:41:05;100447.31;;;16.24;90.14
76201;BME280;64981;52.930;9.266;2023-10-13T06:43:33;100436.47;;;16.32;90.03
76201;BME280;64981;52.930;9.266;2023-10-13T06:46:06;100432.34;;;16.43;89.22
76201;BME280;64981;52.930;9.266;2023-10-13T06:48:33;100425.81;;;16.26;90.22
76201;BME280;64981;52.930;9.266;2023-10-13T06:51:01;100436.88;;;16.29;90.05
76201;BME280;64981;52.930;9.266;2023-10-13T06:53:30;100423.75;;;16.21;90.61
76201;BME280;64981;52.930;9.266;2023-10-13T06:56:05;100412.91;;;16.29;90.18
76201;BME280;64981;52.930;9.266;2023-10-13T06:58:31;100405.50;;;16.18;90.85
76201;BME280;64981;52.930;9.266;2023-10-13T07:00:58;100396.66;;;16.37;89.65
76201;BME280;64981;52.930;9.266;2023-10-13T07:03:25;100404.25;;;16.27;90.32
76201;BME280;64981;52.930;9.266;2023-10-13T07:05:51;100395.00;;;16.49;89.40
76201;BME280;64981;52.930;9.266;2023-10-13T07:08:18;100389.50;;;16.44;89.09
76201;BME280;64981;52.930;9.266;2023-10-13T07:10:55;100387.66;;;16.38;90.04
76201;BME280;64981;52.930;9.266;2023-10-13T07:13:32;100383.72;;;16.60;88.70
76201;BME280;64981;52.930;9.266;2023-10-13T07:16:03;100376.78;;;16.40;89.85
76201;BME280;64981;52.930;9.266;2023-10-13T07:18:39;100362.22;;;16.36;90.15
76201;BME280;64981;52.930;9.266;2023-10-13T07:21:15;100361.84;;;16.19;91.03
76201;BME280;64981;52.930;9.266;2023-10-13T07:23:41;100357.53;;;16.18;91.40
76201;BME280;64981;52.930;9.266;2023-10-13T07:26:15;100339.31;;;16.15;91.41
76201;BME280;64981;52.930;9.266;2023-10-13T07:28:40;100341.75;;;16.23;91.32
76201;BME280;64981;52.930;9.266;2023-10-13T07:31:13;100341.09;;;16.41;89.81
76201;BME280;64981;52.930;9.266;2023-10-13T07:33:40;100345.16;;;16.56;89.10
76201;BME280;64981;52.930;9.266;2023-10-13T07:36:08;100340.72;;;16.24;90.12
76201;BME280;64981;52.930;9.266;2023-10-13T07:38:45;100343.19;;;16.26;90.78
76201;BME280;64981;52.930;9.266;2023-10-13T07:41:24;100337.44;;;16.29;90.53
76201;BME280;64981;52.930;9.266;2023-10-13T07:43:56;100325.53;;;16.31;90.70
76201;BME280;64981;52.930;9.266;2023-10-13T07:46:23;100320.22;;;16.31;90.51
76201;BME280;64981;52.930;9.266;2023-10-13T07:48:56;100318.38;;;16.32;90.22
76201;BME280;64981;52.930;9.266;2023-10-13T07:51:34;100315.94;;;16.17;90.67
76201;BME280;64981;52.930;9.266;2023-10-13T07:54:06;100319.41;;;16.17;91.24
76201;BME280;64981;52.930;9.266;2023-10-13T07:56:36;100316.69;;;16.44;89.76
76201;BME280;64981;52.930;9.266;2023-10-13T07:59:05;100304.84;;;16.20;90.61
76201;BME280;64981;52.930;9.266;2023-10-13T08:01:33;100311.81;;;16.28;90.31
76201;BME280;64981;52.930;9.266;2023-10-13T08:03:59;100296.84;;;16.20;91.23
76201;BME280;64981;52.930;9.266;2023-10-13T08:06:35;100269.00;;;16.03;91.49
76201;BME280;64981;52.930;9.266;2023-10-13T08:09:02;100274.19;;;15.78;93.60
76201;BME280;64981;52.930;9.266;2023-10-13T08:11:38;100304.91;;;15.54;96.05
76201;BME280;64981;52.930;9.266;2023-10-13T08:14:05;100320.03;;;16.00;93.65
76201;BME280;64981;52.930;9.266;2023-10-13T08:16:42;100286.66;;;15.91;94.37
76201;BME280;64981;52.930;9.266;2023-10-13T08:19:14;100329.88;;;15.99;94.18
76201;BME280;64981;52.930;9.266;2023-10-13T08:21:42;100320.66;;;16.08;93.36
76201;BME280;64981;52.930;9.266;2023-10-13T08:24:16;100349.94;;;16.28;92.56
76201;BME280;64981;52.930;9.266;2023-10-13T08:26:42;100334.56;;;16.30;92.18
76201;BME280;64981;52.930;9.266;2023-10-13T08:29:17;100349.34;;;16.20;93.06
76201;BME280;64981;52.930;9.266;2023-10-13T08:31:59;100347.72;;;16.19;93.23
76201;BME280;64981;52.930;9.266;2023-10-13T08:34:40;100348.09;;;16.29;92.80
76201;BME280;64981;52.930;9.266;2023-10-13T08:37:26;100355.69;;;16.25;93.26
76201;BME280;64981;52.930;9.266;2023-10-13T08:39:56;100335.97;;;16.39;93.06
76201;BME280;64981;52.930;9.266;2023-10-13T08:42:30;100332.28;;;16.40;92.75
76201;BME280;64981;52.930;9.266;2023-10-13T08:45:16;100310.53;;;16.43;92.79
76201;BME280;64981;52.930;9.266;2023-10-13T08:47:54;100305.59;;;16.53;92.80
76201;BME280;64981;52.930;9.266;2023-10-13T08:50:30;100306.41;;;16.54;92.78
76201;BME280;64981;52.930;9.266;2023-10-13T08:53:17;100318.81;;;16.73;91.76
76201;BME280;64981;52.930;9.266;2023-10-13T08:56:06;100320.47;;;16.74;91.91
76201;BME280;64981;52.930;9.266;2023-10-13T08:58:43;100311.19;;;16.83;91.29
76201;BME280;64981;52.930;9.266;2023-10-13T09:01:29;100314.38;;;17.05;90.24
76201;BME280;64981;52.930;9.266;2023-10-13T09:04:03;100310.34;;;16.83;90.93
76201;BME280;64981;52.930;9.266;2023-10-13T09:06:40;100316.63;;;17.01;90.82
76201;BME280;64981;52.930;9.266;2023-10-13T09:09:12;100309.84;;;16.99;90.78
76201;BME280;64981;52.930;9.266;2023-10-13T09:11:54;100302.50;;;16.94;91.50
76201;BME280;64981;52.930;9.266;2023-10-13T09:14:34;100290.59;;;17.03;91.26
76201;BME280;64981;52.930;9.266;2023-10-13T09:17:02;100282.59;;;16.97;91.25
76201;BME280;64981;52.930;9.266;2023-10-13T09:19:51;100266.47;;;17.16;90.27
76201;BME280;64981;52.930;9.266;2023-10-13T09:22:29;100259.38;;;17.04;91.20
76201;BME280;64981;52.930;9.266;2023-10-13T09:25:03;100274.56;;;17.35;89.78
76201;BME280;64981;52.930;9.266;2023-10-13T09:27:32;100259.34;;;17.35;89.76
76201;BME280;64981;52.930;9.266;2023-10-13T09:30:00;100257.91;;;17.33;89.53
76201;BME280;64981;52.930;9.266;2023-10-13T09:32:36;100255.25;;;17.33;89.53
76201;BME280;64981;52.930;9.266;2023-10-13T09:35:18;100262.50;;;17.50;88.84
76201;BME280;64981;52.930;9.266;2023-10-13T09:37:45;100256.50;;;17.55;88.59
76201;BME280;64981;52.930;9.266;2023-10-13T09:40:15;100243.69;;;17.63;88.24
76201;BME280;64981;52.930;9.266;2023-10-13T09:42:52;100223.94;;;17.64;88.43
76201;BME280;64981;52.930;9.266;2023-10-13T09:45:30;100226.47;;;17.59;88.63
76201;BME280;64981;52.930;9.266;2023-10-13T09:48:03;100234.94;;;17.74;88.54
76201;BME280;64981;52.930;9.266;2023-10-13T09:50:37;100226.28;;;17.79;88.32
76201;BME280;64981;52.930;9.266;2023-10-13T09:53:06;100225.16;;;17.68;89.24
76201;BME280;64981;52.930;9.266;2023-10-13T09:55:40;100208.09;;;17.88;87.77
76201;BME280;64981;52.930;9.266;2023-10-13T09:58:12;100204.25;;;18.02;87.01
76201;BME280;64981;52.930;9.266;2023-10-13T10:00:47;100212.59;;;17.94;87.70
76201;BME280;64981;52.930;9.266;2023-10-13T10:03:15;100204.06;;;18.03;87.24
76201;BME280;64981;52.930;9.266;2023-10-13T10:05:57;100192.66;;;18.08;86.83
76201;BME280;64981;52.930;9.266;2023-10-13T10:08:33;100179.19;;;18.03;87.28
76201;BME280;64981;52.930;9.266;2023-10-13T10:11:17;100174.69;;;18.15;87.40
76201;BME280;64981;52.930;9.266;2023-10-13T10:14:10;100178.84;;;18.29;87.24
76201;BME280;64981;52.930;9.266;2023-10-13T10:19:26;100171.34;;;18.49;85.88
76201;BME280;64981;52.930;9.266;2023-10-13T10:22:02;100168.84;;;18.54;85.99
76201;BME280;64981;52.930;9.266;2023-10-13T10:24:38;100149.50;;;18.52;86.13
76201;BME280;64981;52.930;9.266;2023-10-13T10:27:03;100160.00;;;18.54;86.19
76201;BME280;64981;52.930;9.266;2023-10-13T10:29:29;100150.22;;;18.59;85.55
76201;BME280;64981;52.930;9.266;2023-10-13T10:31:58;100147.41;;;18.84;84.04
76201;BME280;64981;52.930;9.266;2023-10-13T10:34:30;100141.75;;;18.92;83.97
76201;BME280;64981;52.930;9.266;2023-10-13T10:36:58;100133.09;;;18.90;84.05
76201;BME280;64981;52.930;9.266;2023-10-13T10:39:35;100141.16;;;19.13;82.97
76201;BME280;64981;52.930;9.266;2023-10-13T10:42:12;100128.97;;;19.17;82.72
76201;BME280;64981;52.930;9.266;2023-10-13T10:44:42;100145.25;;;19.04;83.15
76201;BME280;64981;52.930;9.266;2023-10-13T10:47:10;100153.72;;;19.13;83.59
76201;BME280;64981;52.930;9.266;2023-10-13T10:49:37;100133.84;;;19.20;82.55
76201;BME280;64981;52.930;9.266;2023-10-13T10:52:03;100132.06;;;19.38;82.27
76201;BME280;64981;52.930;9.266;2023-10-13T10:54:31;100135.34;;;19.28;82.42
76201;BME280;64981;52.930;9.266;2023-10-13T10:56:58;100132.22;;;19.19;82.28
76201;BME280;64981;52.930;9.266;2023-10-13T10:59:37;100138.94;;;19.33;82.03
76201;BME280;64981;52.930;9.266;2023-10-13T11:02:03;100120.78;;;19.47;80.66
76201;BME280;64981;52.930;9.266;2023-10-13T11:04:28;100118.31;;;19.46;81.51
76201;BME280;64981;52.930;9.266;2023-10-13T11:06:59;100109.38;;;19.63;81.21
76201;BME280;64981;52.930;9.266;2023-10-13T11:09:27;100107.25;;;19.65;80.84
76201;BME280;64981;52.930;9.266;2023-10-13T11:12:09;100103.63;;;19.71;79.29
76201;BME280;64981;52.930;9.266;2023-10-13T11:14:41;100088.56;;;19.82;79.11
76201;BME280;64981;52.930;9.266;2023-10-13T11:17:08;100095.94;;;19.75;80.45
76201;BME280;64981;52.930;9.266;2023-10-13T11:19:44;100098.06;;;20.01;78.62
76201;BME280;64981;52.930;9.266;2023-10-13T11:22:13;100098.50;;;20.10;77.98
76201;BME280;64981;52.930;9.266;2023-10-13T11:24:56;100084.47;;;19.91;78.72
76201;BME280;64981;52.930;9.266;2023-10-13T11:27:32;100081.31;;;19.94;78.06
76201;BME280;64981;52.930;9.266;2023-10-13T11:30:07;100051.31;;;20.25;77.60
76201;BME280;64981;52.930;9.266;2023-10-13T11:32:37;100040.38;;;20.44;75.17
76201;BME280;64981;52.930;9.266;2023-10-13T11:35:09;100041.97;;;20.28;75.49
76201;BME280;64981;52.930;9.266;2023-10-13T11:37:47;100029.00;;;20.53;74.36
76201;BME280;64981;52.930;9.266;2023-10-13T11:40:23;100016.22;;;20.44;74.61
76201;BME280;64981;52.930;9.266;2023-10-13T11:43:08;100017.78;;;20.56;74.21
76201;BME280;64981;52.930;9.266;2023-10-13T11:45:47;100016.97;;;20.56;74.71
76201;BME280;64981;52.930;9.266;2023-10-13T11:48:23;100008.69;;;20.57;74.51
76201;BME280;64981;52.930;9.266;2023-10-13T11:51:00;100013.72;;;20.54;74.15
76201;BME280;64981;52.930;9.266;2023-10-13T11:53:31;100028.94;;;20.36;74.50
76201;BME280;64981;52.930;9.266;2023-10-13T11:55:57;100034.97;;;20.55;74.12
76201;BME280;64981;52.930;9.266;2023-10-13T11:58:22;100002.34;;;20.63;73.01
76201;BME280;64981;52.930;9.266;2023-10-13T12:00:48;100008.91;;;20.56;73.64
76201;BME280;64981;52.930;9.266;2023-10-13T12:03:19;100010.53;;;20.57;72.14
76201;BME280;64981;52.930;9.266;2023-10-13T12:05:54;100005.19;;;20.57;72.13
76201;BME280;64981;52.930;9.266;2023-10-13T12:08:30;100012.91;;;20.53;72.57
76201;BME280;64981;52.930;9.266;2023-10-13T12:10:58;100005.06;;;20.85;70.95
76201;BME280;64981;52.930;9.266;2023-10-13T12:13:43;100019.31;;;20.85;71.60
76201;BME280;64981;52.930;9.266;2023-10-13T12:16:09;100011.38;;;20.57;70.27
76201;BME280;64981;52.930;9.266;2023-10-13T12:18:35;100004.47;;;20.61;70.21
76201;BME280;64981;52.930;9.266;2023-10-13T12:21:08;99995.50;;;20.56;69.89
76201;BME280;64981;52.930;9.266;2023-10-13T12:23:33;99994.84;;;20.65;69.81
76201;BME280;64981;52.930;9.266;2023-10-13T12:26:02;99984.94;;;20.49;70.24
76201;BME280;64981;52.930;9.266;2023-10-13T12:28:31;99982.38;;;20.76;69.23
76201;BME280;64981;52.930;9.266;2023-10-13T12:31:04;99972.69;;;20.91;68.75
76201;BME280;64981;52.930;9.266;2023-10-13T12:33:33;99961.94;;;20.91;67.81
76201;BME280;64981;52.930;9.266;2023-10-13T12:36:03;99966.03;;;20.99;67.52
76201;BME280;64981;52.930;9.266;2023-10-13T12:38:35;99952.91;;;20.81;67.71
76201;BME280;64981;52.930;9.266;2023-10-13T12:41:05;99958.41;;;20.69;68.25
76201;BME280;64981;52.930;9.266;2023-10-13T12:43:41;99938.19;;;20.83;68.64
76201;BME280;64981;52.930;9.266;2023-10-13T12:46:16;99930.91;;;20.79;68.28
76201;BME280;64981;52.930;9.266;2023-10-13T12:48:52;99928.75;;;20.81;68.29
76201;BME280;64981;52.930;9.266;2023-10-13T12:51:23;99930.00;;;20.52;69.46
76201;BME280;64981;52.930;9.266;2023-10-13T12:54:06;99922.88;;;20.62;68.19
76201;BME280;64981;52.930;9.266;2023-10-13T12:56:40;99928.72;;;20.98;68.24
76201;BME280;64981;52.930;9.266;2023-10-13T12:59:09;99917.53;;;20.84;68.76
76201;BME280;64981;52.930;9.266;2023-10-13T13:01:39;99915.41;;;20.64;69.46
76201;BME280;64981;52.930;9.266;2023-10-13T13:04:10;99907.47;;;20.74;68.82
76201;BME280;64981;52.930;9.266;2023-10-13T13:06:48;99907.44;;;20.91;68.51
76201;BME280;64981;52.930;9.266;2023-10-13T13:09:14;99904.00;;;20.74;67.67
76201;BME280;64981;52.930;9.266;2023-10-13T13:11:39;99898.56;;;20.90;68.03
76201;BME280;64981;52.930;9.266;2023-10-13T13:14:06;99907.94;;;20.88;67.57
76201;BME280;64981;52.930;9.266;2023-10-13T13:16:34;99895.97;;;21.17;66.85
76201;BME280;64981;52.930;9.266;2023-10-13T13:19:00;99891.31;;;21.13;66.49